Time;durP1;ratioP1;P1;durP2;ratioP2;P2;SDS_P1;SDS_P2;PMS_P1;PMS_P2;Temp;Humidity;BMP_temperature;BMP_pressure;BME280_temperature;BME280_humidity;BME280_pressure;Samples;Min_cycle;Max_cycle;Signal;HPM_P1;HPM_P2
2022/08/26 05:22:33;;;;;;;47.17;24.70;;;;;;;23.32;53.96;100311.19;5970168;23;20019;31
2022/08/26 05:25:59;;;;;;;51.75;23.20;;;;;;;23.44;54.58;100324.94;4816359;29;20054;-91
2022/08/26 05:29:14;;;;;;;48.85;22.55;;;;;;;23.57;54.30;100311.53;4827085;29;20478;-92
2022/08/26 05:32:12;;;;;;;38.85;23.33;;;;;;;23.44;53.83;100282.25;4822353;29;20073;-93
2022/08/26 05:35:02;;;;;;;40.88;21.30;;;;;;;23.76;52.97;100318.22;4851428;29;20042;-92
2022/08/26 05:37:33;;;;;;;38.45;21.33;;;;;;;23.85;52.19;100330.72;4823505;29;20110;-95
2022/08/26 05:40:55;;;;;;;47.65;21.27;;;;;;;23.48;51.19;100241.25;4823854;29;20055;-91
2022/08/26 05:44:36;;;;;;;38.17;19.33;;;;;;;23.66;49.10;100245.06;4752021;29;20090;-89
2022/08/26 05:47:47;;;;;;;43.10;20.38;;;;;;;23.79;49.34;100244.88;4666300;30;20081;-91
2022/08/26 05:51:22;;;;;;;33.67;19.55;;;;;;;24.22;50.04;100295.66;4681234;30;20058;-92
2022/08/26 05:54:12;;;;;;;46.35;20.02;;;;;;;23.87;49.83;100225.03;4653308;30;20063;-93
2022/08/26 05:56:39;;;;;;;39.90;21.00;;;;;;;23.99;49.15;100231.53;4640983;30;20661;-93
2022/08/26 05:59:33;;;;;;;38.00;20.15;;;;;;;24.73;48.20;100325.75;4641875;30;20102;-93
2022/08/26 06:02:14;;;;;;;50.42;21.52;;;;;;;24.52;49.41;100279.63;4638033;30;20067;-92
2022/08/26 06:04:40;;;;;;;54.33;22.17;;;;;;;24.80;48.98;100317.44;4651144;30;20051;-94
2022/08/26 06:07:09;;;;;;;50.35;20.88;;;;;;;24.70;49.11;100281.78;4651116;30;20400;-95
2022/08/26 06:10:24;;;;;;;52.28;20.20;;;;;;;25.12;48.41;100325.34;4640606;30;20089;-90
2022/08/26 06:16:34;;;;;;;108.30;22.80;;;;;;;24.84;50.00;100246.38;4659227;30;20157;-94
2022/08/26 06:19:02;;;;;;;60.72;21.02;;;;;;;24.96;48.41;100272.44;4685198;30;20053;-94
2022/08/26 06:21:38;;;;;;;37.80;19.70;;;;;;;25.36;47.52;100318.34;4705420;30;20054;-94
2022/08/26 06:27:32;;;;;;;37.10;18.67;;;;;;;25.10;46.82;100272.56;4757117;30;20571;-95
2022/08/26 06:30:05;;;;;;;43.72;18.90;;;;;;;24.97;45.58;100235.69;4747919;30;20121;-96
2022/08/26 06:32:41;;;;;;;41.28;18.55;;;;;;;25.06;46.22;100244.53;4763571;30;20039;-94
2022/08/26 06:35:08;;;;;;;46.85;18.77;;;;;;;25.57;45.79;100309.28;4777271;30;20066;-93
2022/08/26 06:41:00;;;;;;;32.88;16.98;;;;;;;25.68;43.29;100298.94;4985366;23;20480;-94
2022/08/26 06:46:17;;;;;;;32.45;17.40;;;;;;;25.73;43.66;100282.59;4875603;29;20442;-96
2022/08/26 06:48:48;;;;;;;33.22;16.52;;;;;;;26.10;42.73;100329.22;4875419;29;20079;-94
2022/08/26 06:51:38;;;;;;;33.45;18.23;;;;;;;25.71;43.27;100244.97;4860678;29;20057;-95
2022/08/26 06:54:18;;;;;;;38.17;16.77;;;;;;;26.37;42.83;100326.91;4898314;29;20056;-91
2022/08/26 06:57:16;;;;;;;51.17;17.35;;;;;;;26.32;42.95;100306.84;4897951;29;20024;-91
2022/08/26 06:59:44;;;;;;;30.58;15.52;;;;;;;26.58;42.13;100328.19;4868484;29;20056;-94
2022/08/26 07:02:19;;;;;;;43.83;18.02;;;;;;;26.51;41.09;100309.34;4898150;29;20434;-90
2022/08/26 07:04:46;;;;;;;35.83;15.77;;;;;;;26.60;41.10;100298.53;4884800;29;20123;-91
2022/08/26 07:07:16;;;;;;;29.10;15.07;;;;;;;26.80;36.94;100327.03;4897246;29;20069;-94
2022/08/26 07:09:45;;;;;;;25.42;14.45;;;;;;;26.84;36.44;100316.59;4877532;29;20079;-94
2022/08/26 07:12:11;;;;;;;38.95;16.77;;;;;;;26.86;37.21;100316.22;4881910;29;20022;-92
2022/08/26 07:14:37;;;;;;;32.80;15.88;;;;;;;26.72;36.35;100280.50;4898886;29;20050;-92
2022/08/26 07:17:06;;;;;;;29.52;16.38;;;;;;;26.94;37.40;100304.56;4899521;29;20045;-92
2022/08/26 07:19:32;;;;;;;42.30;17.58;;;;;;;26.91;37.01;100288.53;4853152;29;20053;-94
2022/08/26 07:22:04;;;;;;;62.85;21.48;;;;;;;27.17;35.65;100321.03;4886923;29;20040;-92
2022/08/26 07:24:53;;;;;;;58.30;22.10;;;;;;;27.01;36.22;100286.94;4900280;29;20052;-95
2022/08/26 07:27:26;;;;;;;59.65;19.38;;;;;;;27.13;36.31;100282.97;4895802;29;20482;-94
2022/08/26 07:29:56;;;;;;;51.15;19.45;;;;;;;27.39;36.31;100319.03;4900321;29;20045;-93
2022/08/26 07:32:23;;;;;;;57.65;21.70;;;;;;;27.43;36.34;100318.22;4884465;29;20063;-94
2022/08/26 07:34:52;;;;;;;54.03;19.90;;;;;;;27.17;37.22;100273.31;4865101;29;20053;-96
2022/08/26 07:37:21;;;;;;;42.28;19.05;;;;;;;27.29;36.81;100277.72;4894631;29;20066;-96
2022/08/26 07:39:53;;;;;;;49.95;19.60;;;;;;;27.26;37.71;100269.31;4876651;29;20108;-93
2022/08/26 07:42:47;;;;;;;55.88;19.88;;;;;;;27.67;37.38;100316.56;4891728;29;20048;-92
2022/08/26 07:45:14;;;;;;;44.78;16.92;;;;;;;27.50;35.92;100287.31;4882296;29;20036;-96
2022/08/26 07:47:42;;;;;;;45.53;18.25;;;;;;;27.50;34.48;100276.06;4858359;29;20392;-96
2022/08/26 07:50:31;;;;;;;64.05;18.17;;;;;;;27.82;37.31;100318.97;4885315;29;20056;-96
2022/08/26 07:53:00;;;;;;;50.72;16.92;;;;;;;27.90;36.76;100313.31;4854466;29;20060;-94
2022/08/26 07:55:31;;;;;;;55.60;20.00;;;;;;;27.86;36.00;100308.50;4854631;29;20040;-94
2022/08/26 07:57:57;;;;;;;51.95;18.23;;;;;;;27.93;37.52;100304.06;4873767;29;20048;-94
2022/08/26 08:00:26;;;;;;;51.92;18.10;;;;;;;28.04;35.02;100300.00;4859644;29;20040;-96
2022/08/26 08:02:54;;;;;;;36.67;16.60;;;;;;;27.80;35.99;100259.56;4876133;29;20066;-96
2022/08/26 08:05:22;;;;;;;46.67;16.92;;;;;;;27.96;36.92;100280.78;4859088;29;20112;-92
2022/08/26 08:08:00;;;;;;;36.45;17.52;;;;;;;27.95;36.13;100267.94;4863990;29;20057;-94
2022/08/26 08:13:54;;;;;;;44.75;17.05;;;;;;;28.37;36.38;100309.06;4900075;29;20115;-95
2022/08/26 08:16:48;;;;;;;40.65;16.88;;;;;;;28.44;36.32;100313.88;4862832;29;20594;-96
2022/08/26 08:19:14;;;;;;;38.72;17.15;;;;;;;28.40;33.96;100294.22;4875840;29;20040;-96
2022/08/26 08:21:55;;;;;;;32.20;15.45;;;;;;;28.47;34.92;100293.38;4876612;29;20107;-91
2022/08/26 08:24:21;;;;;;;52.70;16.90;;;;;;;28.39;35.19;100280.56;4876635;29;20044;-92
2022/08/26 08:27:13;;;;;;;35.28;16.27;;;;;;;28.66;34.18;100311.75;4872824;29;20064;-96
2022/08/26 08:29:48;;;;;;;33.85;16.38;;;;;;;28.48;33.96;100272.50;4860276;29;20037;-91
2022/08/26 08:32:15;;;;;;;26.23;16.92;;;;;;;28.71;34.45;100306.50;4871049;29;20126;-95
2022/08/26 08:34:44;;;;;;;35.72;18.20;;;;;;;28.66;33.67;100292.06;4907090;29;20503;-95
2022/08/26 08:37:12;;;;;;;44.47;17.35;;;;;;;28.71;35.55;100289.63;4836966;29;20106;-96
2022/08/26 08:39:48;;;;;;;50.13;18.00;;;;;;;28.89;34.81;100305.56;4824498;29;20057;-96
2022/08/26 08:45:19;;;;;;;34.92;18.23;;;;;;;28.91;35.61;100294.69;4855222;29;19945;-95
2022/08/26 08:47:55;;;;;;;33.53;19.45;;;;;;;28.90;36.65;100284.63;4822224;29;20136;-92
2022/08/26 08:50:27;;;;;;;47.38;20.67;;;;;;;29.05;35.48;100294.59;4830667;29;20045;-96
2022/08/26 08:53:17;;;;;;;57.42;18.50;;;;;;;29.07;35.62;100283.69;4798721;29;20042;-95
2022/08/26 08:56:07;;;;;;;29.65;17.30;;;;;;;29.09;32.59;100284.09;4814658;29;20610;-93
2022/08/26 08:59:06;;;;;;;28.63;16.98;;;;;;;28.98;35.13;100264.47;4830699;29;20068;-95
2022/08/26 09:01:53;;;;;;;30.60;17.60;;;;;;;29.17;35.73;100287.63;4798427;29;20046;-95
2022/08/26 09:04:35;;;;;;;38.63;19.10;;;;;;;29.15;34.26;100274.00;4813588;29;20077;-91
2022/08/26 09:07:07;;;;;;;28.83;18.50;;;;;;;29.23;33.01;100278.31;4811743;29;20115;-96
2022/08/26 09:09:47;;;;;;;38.55;20.80;;;;;;;29.18;31.96;100261.91;4821136;29;20061;-96
2022/08/26 09:12:22;;;;;;;31.30;17.90;;;;;;;29.39;33.03;100276.97;4803706;29;20078;-95
2022/08/26 09:14:56;;;;;;;40.83;20.40;;;;;;;29.27;33.13;100250.94;4814129;29;20049;-94
2022/08/26 09:17:45;;;;;;;37.63;17.65;;;;;;;29.21;32.38;100229.28;4845443;29;20037;-91
2022/08/26 09:20:36;;;;;;;31.65;19.00;;;;;;;29.58;32.13;100282.00;4850846;29;20052;-95
2022/08/26 09:23:03;;;;;;;24.58;16.90;;;;;;;29.18;33.21;100210.41;4853841;29;20044;-95
2022/08/26 09:25:29;;;;;;;35.88;16.88;;;;;;;29.60;30.19;100259.84;4883884;29;20040;-93
2022/08/26 09:27:55;;;;;;;28.48;16.27;;;;;;;29.60;31.54;100245.75;4884280;29;20041;-93
2022/08/26 09:30:31;;;;;;;43.60;16.25;;;;;;;29.63;31.79;100252.56;4884005;29;20419;-93
2022/08/26 09:33:04;;;;;;;;;;;;;;;29.84;32.30;100274.88;4868892;29;20045;-93
2022/08/26 09:35:47;;;;;;;29.02;19.10;;;;;;;29.68;31.61;100238.84;4852103;29;19923;-93
2022/08/26 09:38:26;;;;;;;35.70;17.17;;;;;;;29.88;30.44;100264.34;4864956;29;20041;-93
2022/08/26 09:41:03;;;;;;;43.38;18.52;;;;;;;29.60;30.83;100220.41;4866956;29;20637;-93
2022/08/26 09:43:30;;;;;;;38.58;17.95;;;;;;;29.95;30.35;100267.09;4882885;29;20060;-92
2022/08/26 09:46:17;;;;;;;34.13;17.67;;;;;;;29.98;28.18;100259.81;4899065;29;20096;-96
2022/08/26 09:48:49;;;;;;;35.50;19.75;;;;;;;29.94;30.15;100250.59;4880281;29;20045;-92
2022/08/26 09:51:32;;;;;;;37.28;17.33;;;;;;;29.94;29.19;100240.13;4849732;29;20071;-93
2022/08/26 09:55:08;;;;;;;27.48;19.27;;;;;;;30.17;30.60;100264.00;4827570;29;20058;-94
2022/08/26 09:57:59;;;;;;;21.98;15.75;;;;;;;30.23;30.28;100270.75;4770321;30;20056;-95
2022/08/26 10:00:33;;;;;;;33.58;18.67;;;;;;;30.24;27.61;100261.09;4767606;30;20056;-93
2022/08/26 10:03:08;;;;;;;29.80;16.38;;;;;;;30.26;28.57;100255.00;4761105;30;20048;-94
2022/08/26 10:06:03;;;;;;;38.70;17.65;;;;;;;30.35;27.47;100252.47;4930263;23;20056;-93
2022/08/26 10:09:17;;;;;;;59.90;19.15;;;;;;;29.91;28.47;100178.16;4927521;23;20052;-93
2022/08/26 10:19:48;;;;;;;25.60;17.83;;;;;;;30.53;28.65;100252.19;4888138;29;20396;-90
2022/08/26 10:23:04;;;;;;;53.50;17.98;;;;;;;30.60;26.91;100252.09;4872404;29;20032;-93
2022/08/26 10:25:55;;;;;;;34.60;17.52;;;;;;;30.64;27.54;100250.81;4882106;23;20088;-96
2022/08/26 10:29:32;;;;;;;;;;;;;;;;;;;;;
2022/08/26 10:33:23;;;;;;;41.22;18.02;;;;;;;30.81;27.21;100239.69;4896574;29;20064;-95
2022/08/26 10:36:51;;;;;;;31.02;16.10;;;;;;;30.51;27.09;100165.16;4851054;29;20076;-95
2022/08/26 10:43:28;;;;;;;39.05;20.33;;;;;;;31.03;27.03;100226.78;4846539;29;20061;-94
2022/08/26 10:49:03;;;;;;;43.88;15.38;;;;;;;30.85;27.08;100183.94;4847400;29;20065;-93
2022/08/26 10:52:13;;;;;;;29.58;15.70;;;;;;;31.19;24.81;100219.63;4818574;29;20078;-93
2022/08/26 10:59:42;;;;;;;75.32;17.20;;;;;;;31.03;25.89;100229.63;4891771;29;20043;-93
2022/08/26 11:02:49;;;;;;;37.55;15.35;;;;;;;30.95;24.49;100228.13;4868639;29;20037;-93
2022/08/26 11:05:21;;;;;;;26.73;13.82;;;;;;;30.73;25.93;100188.16;4883638;29;20045;-90
2022/08/26 11:07:51;;;;;;;38.53;13.57;;;;;;;30.64;23.30;100157.66;4897733;29;20055;-90
2022/08/26 11:10:20;;;;;;;109.50;17.83;;;;;;;31.16;25.85;100220.50;4865946;29;20167;-92
2022/08/26 11:12:53;;;;;;;37.75;15.25;;;;;;;30.95;24.97;100187.81;4846966;29;20053;-90
2022/08/26 11:15:27;;;;;;;33.35;16.05;;;;;;;31.14;25.74;100215.28;4831577;29;20511;-92
2022/08/26 11:18:01;;;;;;;39.78;15.55;;;;;;;31.22;25.93;100202.59;4862899;29;20048;-89
2022/08/26 11:20:35;;;;;;;26.65;15.88;;;;;;;31.35;26.35;100205.63;4864607;29;20077;-87
2022/08/26 11:23:22;;;;;;;42.10;14.95;;;;;;;31.30;25.99;100197.63;4873732;29;20049;-91
2022/08/26 11:25:57;;;;;;;27.10;15.05;;;;;;;31.07;27.07;100210.56;4872234;29;20045;-88
2022/08/26 11:28:50;;;;;;;26.02;14.45;;;;;;;30.80;26.70;100196.53;4862016;29;20471;-93
2022/08/26 11:31:29;;;;;;;27.33;14.90;;;;;;;30.61;26.31;100192.38;4882070;29;20053;-89
2022/08/26 11:34:05;;;;;;;41.50;16.38;;;;;;;30.12;27.09;100154.47;4866393;29;20095;-93
2022/08/26 11:36:37;;;;;;;33.45;16.00;;;;;;;30.34;28.04;100197.28;4851638;29;20045;-91
2022/08/26 11:39:37;;;;;;;31.48;15.55;;;;;;;30.55;27.49;100191.28;4852227;29;20041;-92
2022/08/26 11:46:26;;;;;;;61.20;21.02;;;;;;;30.85;27.93;100167.00;4798753;29;20043;-91
2022/08/26 11:49:00;;;;;;;71.85;21.13;;;;;;;30.82;28.58;100159.41;4786126;29;20088;-89
2022/08/26 11:51:30;;;;;;;53.07;17.20;;;;;;;30.79;29.31;100140.50;4812944;29;20509;-90
2022/08/26 11:54:20;;;;;;;40.00;16.38;;;;;;;31.16;27.94;100176.13;4843674;29;20559;-87
2022/08/26 11:56:51;;;;;;;46.67;16.27;;;;;;;31.22;28.63;100176.41;4870843;23;20057;-91
2022/08/26 11:59:40;;;;;;;48.70;15.45;;;;;;;31.18;27.85;100138.94;4866900;29;20430;-92
2022/08/26 12:02:18;;;;;;;52.50;16.88;;;;;;;31.25;27.94;100144.44;4883456;29;20044;-93
2022/08/26 12:05:42;;;;;;;34.35;16.90;;;;;;;31.28;29.79;100174.66;4871605;29;20053;-92
2022/08/26 12:08:12;;;;;;;48.22;13.85;;;;;;;31.15;27.62;100126.50;4882090;29;20033;-93
2022/08/26 12:10:39;;;;;;;39.65;13.02;;;;;;;31.58;26.71;100165.97;4852189;29;20048;-91
2022/08/26 12:13:27;;;;;;;27.77;13.77;;;;;;;31.26;24.78;100083.88;4855325;23;20057;-96
2022/08/26 12:16:13;;;;;;;50.65;15.45;;;;;;;31.62;23.58;100134.03;4821550;29;20053;-94
2022/08/26 12:18:54;;;;;;;30.02;14.85;;;;;;;31.59;25.73;100116.72;4845843;24;20049;-93
2022/08/26 12:21:38;;;;;;;28.20;14.75;;;;;;;31.90;25.98;100153.22;4861754;24;20151;-95
2022/08/26 12:24:24;;;;;;;25.77;13.00;;;;;;;31.75;23.91;100109.50;4842816;29;20040;-96
2022/08/26 12:27:12;;;;;;;24.33;14.15;;;;;;;31.99;26.13;100132.81;4866526;29;20045;-95
2022/08/26 12:30:18;;;;;;;31.77;14.43;;;;;;;32.23;25.01;100156.88;4835657;29;20047;-92
2022/08/26 12:33:12;;;;;;;22.57;13.50;;;;;;;32.28;22.91;100155.53;4848999;29;20072;-92
2022/08/26 12:35:39;;;;;;;21.70;12.77;;;;;;;32.08;21.61;100118.03;4831730;29;20302;-92
2022/08/26 12:38:32;;;;;;;22.05;12.50;;;;;;;32.31;22.29;100146.16;4889286;23;20707;-92
2022/08/26 12:41:04;;;;;;;25.35;12.90;;;;;;;31.91;23.54;100072.00;4863474;29;20072;-92
2022/08/26 12:43:59;;;;;;;23.52;11.88;;;;;;;32.44;21.14;100144.25;4879439;23;20083;-90
2022/08/26 12:46:30;;;;;;;;;;;;;;;32.48;22.27;100142.16;4897949;29;20419;-93
2022/08/26 12:49:02;;;;;;;17.10;11.88;;;;;;;32.38;23.01;100131.84;4856716;29;19930;-93
2022/08/26 12:51:34;;;;;;;17.77;11.63;;;;;;;32.47;20.58;100140.53;4849086;29;20139;-93
2022/08/26 12:54:05;;;;;;;18.55;12.18;;;;;;;32.27;22.07;100106.63;4873227;29;20043;-93
2022/08/26 12:57:09;;;;;;;28.30;12.90;;;;;;;32.01;21.75;100083.03;4859204;29;20041;-91
2022/08/26 12:59:35;;;;;;;21.83;12.10;;;;;;;32.15;21.76;100103.72;4850838;29;20044;-92
2022/08/26 13:02:07;;;;;;;;;;;;;;;32.36;21.54;100139.19;4852773;23;20121;-92
2022/08/26 13:08:27;;;;;;;62.28;14.38;;;;;;;32.34;21.09;100133.16;4868668;29;20527;-93
2022/08/26 13:11:23;;;;;;;23.50;12.68;;;;;;;31.95;21.15;100067.03;4844022;29;20120;-91
2022/08/26 13:13:55;;;;;;;35.60;12.30;;;;;;;32.09;20.14;100089.34;4850734;29;20048;-92
2022/08/26 13:19:10;;;;;;;38.67;12.60;;;;;;;32.36;22.59;100108.84;4848679;29;20065;-90
2022/08/26 13:21:43;;;;;;;20.95;13.20;;;;;;;32.20;21.98;100094.72;4852923;29;20053;-90
2022/08/26 13:24:13;;;;;;;21.60;13.60;;;;;;;32.39;22.19;100119.28;4822054;29;20061;-89
2022/08/26 13:26:41;;;;;;;27.00;12.82;;;;;;;32.45;21.74;100125.22;4820814;29;20060;-89
2022/08/26 13:48:27;;;;;;;29.33;12.88;;;;;;;31.91;21.99;100078.44;4958225;23;20072;-91
2022/08/26 13:55:05;;;;;;;38.13;12.63;;;;;;;32.01;22.42;100110.53;5106765;23;20064;-96
2022/08/26 14:00:45;;;;;;;24.48;12.95;;;;;;;31.74;23.91;100080.44;5421050;23;20060;-94
2022/08/26 14:22:41;;;;;;;22.40;12.48;;;;;;;31.22;23.80;100054.94;4888177;29;20156;-93
2022/08/26 14:26:10;;;;;;;;;;;;;;;;;;;;;
2022/08/26 14:29:12;;;;;;;28.08;13.75;;;;;;;30.92;24.06;100041.84;4814262;29;20143;-94
2022/08/26 17:31:11;;;;;;;67.20;23.60;;;;;;;25.68;35.89;100136.53;4310663;23;20048;-90
2022/08/26 17:52:43;;;;;;;52.22;21.38;;;;;;;25.21;34.94;100129.94;4884830;23;20601;-91
2022/08/26 17:55:35;;;;;;;50.92;21.63;;;;;;;25.18;35.02;100137.13;4842116;29;20113;-92
2022/08/26 18:01:13;;;;;;;58.20;20.80;;;;;;;24.72;35.70;100072.50;4909508;29;20135;-91
2022/08/26 18:04:42;;;;;;;68.60;22.15;;;;;;;24.37;36.85;100026.31;4816829;29;20058;-90
2022/08/26 18:07:09;;;;;;;62.78;21.27;;;;;;;24.41;36.55;100046.75;4796414;29;20046;-92
2022/08/26 18:14:13;;;;;;;65.25;24.35;;;;;;;24.70;36.70;100111.22;4877713;29;20039;-91
2022/08/26 18:17:01;;;;;;;41.53;19.95;;;;;;;24.37;36.45;100068.25;4777822;29;20602;-92
2022/08/26 18:22:34;;;;;;;66.43;27.15;;;;;;;24.06;36.76;100031.28;5079674;27;20421;-90
2022/08/26 18:29:17;;;;;;;67.35;27.75;;;;;;;24.63;36.96;100136.34;5018946;28;20054;-92
2022/08/26 18:31:47;;;;;;;62.70;26.48;;;;;;;23.92;37.13;100033.97;5027073;22;20050;-91
2022/08/26 18:51:31;;;;;;;38.55;21.08;;;;;;;24.27;37.28;100150.81;5054560;22;20052;-91
2022/08/26 18:54:19;;;;;;;39.95;18.13;;;;;;;24.27;36.64;100150.00;5062417;22;20127;-89
2022/08/26 18:56:49;;;;;;;41.00;17.42;;;;;;;24.14;36.06;100129.94;5062833;23;20054;-91
2022/08/26 19:03:24;;;;;;;33.78;16.58;;;;;;;24.29;35.36;100164.41;5028846;28;20077;-91
2022/08/26 19:05:54;;;;;;;32.08;16.92;;;;;;;23.64;35.76;100060.44;5034465;23;20103;-90
2022/08/26 19:08:42;;;;;;;35.95;16.00;;;;;;;24.25;35.54;100158.78;5062723;22;20055;-91
2022/08/26 19:15:15;;;;;;;36.22;17.25;;;;;;;23.83;35.45;100103.31;5026482;28;20061;-91
2022/08/26 19:27:00;;;;;;;70.63;29.90;;;;;;;23.94;36.58;100176.00;1862354;23;20315;-88
2022/08/26 19:30:36;;;;;;;55.28;27.45;;;;;;;23.91;37.84;100174.81;4962956;28;20114;-95
2022/08/26 19:34:27;;;;;;;24.80;14.10;;;;;;;23.88;35.43;100170.00;4989596;23;20069;-91
2022/08/26 19:51:27;;;;;;;;;;;;;;;23.56;43.77;100192.69;4026717;23;20295;-91
